sensor_id;sensor_type;location;lat;lon;timestamp;pressure;altitude;pressure_sealevel;temperature;humidity
35507;BME280;36461;52.018;21.036;2023-04-10T00:00:24;101100.20;;;7.42;79.34
35507;BME280;36461;52.018;21.036;2023-04-10T00:03:12;101103.18;;;7.35;79.29
35507;BME280;36461;52.018;21.036;2023-04-10T00:05:40;101105.31;;;7.28;79.39
35507;BME280;36461;52.018;21.036;2023-04-10T00:08:08;101102.94;;;7.20;79.51
35507;BME280;36461;52.018;21.036;2023-04-10T00:10:36;101105.41;;;7.13;79.54
35507;BME280;36461;52.018;21.036;2023-04-10T00:13:05;101106.30;;;7.07;79.56
35507;BME280;36461;52.018;21.036;2023-04-10T00:15:33;101105.28;;;7.03;79.62
35507;BME280;36461;52.018;21.036;2023-04-10T00:18:01;101102.54;;;7.01;79.76
35507;BME280;36461;52.018;21.036;2023-04-10T00:20:29;101101.36;;;6.99;79.68
35507;BME280;36461;52.018;21.036;2023-04-10T00:22:57;101099.66;;;6.94;79.57
35507;BME280;36461;52.018;21.036;2023-04-10T00:25:25;101102.29;;;6.86;79.53
35507;BME280;36461;52.018;21.036;2023-04-10T00:27:54;101099.73;;;6.80;79.84
35507;BME280;36461;52.018;21.036;2023-04-10T00:30:23;101096.15;;;6.74;79.98
35507;BME280;36461;52.018;21.036;2023-04-10T00:32:51;101092.05;;;6.70;80.34
35507;BME280;36461;52.018;21.036;2023-04-10T00:35:19;101092.06;;;6.65;80.50
35507;BME280;36461;52.018;21.036;2023-04-10T00:37:48;101093.98;;;6.60;80.60
35507;BME280;36461;52.018;21.036;2023-04-10T00:40:17;101095.90;;;6.54;80.61
35507;BME280;36461;52.018;21.036;2023-04-10T00:42:45;101098.67;;;6.50;80.90
35507;BME280;36461;52.018;21.036;2023-04-10T00:45:13;101100.38;;;6.50;80.99
35507;BME280;36461;52.018;21.036;2023-04-10T00:47:41;101102.45;;;6.49;81.07
35507;BME280;36461;52.018;21.036;2023-04-10T00:50:09;101097.48;;;6.47;81.02
35507;BME280;36461;52.018;21.036;2023-04-10T00:52:38;101100.40;;;6.45;80.63
35507;BME280;36461;52.018;21.036;2023-04-10T00:55:07;101103.86;;;6.40;80.69
35507;BME280;36461;52.018;21.036;2023-04-10T00:57:35;101107.83;;;6.36;81.15
35507;BME280;36461;52.018;21.036;2023-04-10T01:00:05;101109.72;;;6.35;81.39
35507;BME280;36461;52.018;21.036;2023-04-10T01:02:33;101111.78;;;6.35;81.55
35507;BME280;36461;52.018;21.036;2023-04-10T01:05:02;101114.54;;;6.33;81.46
35507;BME280;36461;52.018;21.036;2023-04-10T01:07:53;101113.02;;;6.28;81.43
35507;BME280;36461;52.018;21.036;2023-04-10T01:13:52;101117.52;;;6.14;81.72
35507;BME280;36461;52.018;21.036;2023-04-10T01:16:26;101119.23;;;6.08;81.96
35507;BME280;36461;52.018;21.036;2023-04-10T01:21:40;101116.50;;;6.04;82.22
35507;BME280;36461;52.018;21.036;2023-04-10T01:27:11;101114.61;;;6.04;82.54
35507;BME280;36461;52.018;21.036;2023-04-10T01:29:46;101113.39;;;6.04;82.64
35507;BME280;36461;52.018;21.036;2023-04-10T01:32:20;101111.17;;;6.02;82.63
35507;BME280;36461;52.018;21.036;2023-04-10T01:34:53;101111.17;;;6.02;82.76
35507;BME280;36461;52.018;21.036;2023-04-10T01:37:26;101108.60;;;6.03;83.02
35507;BME280;36461;52.018;21.036;2023-04-10T01:40:00;101110.31;;;6.00;82.95
35507;BME280;36461;52.018;21.036;2023-04-10T01:42:31;101110.13;;;5.97;83.06
35507;BME280;36461;52.018;21.036;2023-04-10T01:45:03;101105.83;;;5.91;82.99
35507;BME280;36461;52.018;21.036;2023-04-10T01:47:34;101104.80;;;5.88;83.00
35507;BME280;36461;52.018;21.036;2023-04-10T01:50:04;101101.20;;;5.85;82.80
35507;BME280;36461;52.018;21.036;2023-04-10T01:52:34;101103.61;;;5.83;82.70
35507;BME280;36461;52.018;21.036;2023-04-10T01:55:15;101102.58;;;5.80;82.73
35507;BME280;36461;52.018;21.036;2023-04-10T01:57:49;101104.13;;;5.77;82.77
35507;BME280;36461;52.018;21.036;2023-04-10T02:00:18;101109.96;;;5.74;82.99
35507;BME280;36461;52.018;21.036;2023-04-10T02:02:47;101106.89;;;5.71;82.79
35507;BME280;36461;52.018;21.036;2023-04-10T02:05:15;101108.44;;;5.66;82.98
35507;BME280;36461;52.018;21.036;2023-04-10T02:08:03;101107.91;;;5.62;83.08
35507;BME280;36461;52.018;21.036;2023-04-10T02:10:41;101107.91;;;5.54;83.18
35507;BME280;36461;52.018;21.036;2023-04-10T02:13:13;101109.98;;;5.47;83.27
35507;BME280;36461;52.018;21.036;2023-04-10T02:15:45;101106.19;;;5.44;83.43
35507;BME280;36461;52.018;21.036;2023-04-10T02:18:15;101103.09;;;5.44;83.54
35507;BME280;36461;52.018;21.036;2023-04-10T02:20:44;101101.05;;;5.46;83.88
35507;BME280;36461;52.018;21.036;2023-04-10T02:23:15;101099.66;;;5.47;83.70
35507;BME280;36461;52.018;21.036;2023-04-10T02:25:44;101098.64;;;5.43;83.70
35507;BME280;36461;52.018;21.036;2023-04-10T02:28:12;101104.13;;;5.39;83.41
35507;BME280;36461;52.018;21.036;2023-04-10T02:30:40;101102.23;;;5.36;83.48
35507;BME280;36461;52.018;21.036;2023-04-10T02:33:10;101104.30;;;5.31;83.55
35507;BME280;36461;52.018;21.036;2023-04-10T02:35:38;101105.14;;;5.26;83.41
35507;BME280;36461;52.018;21.036;2023-04-10T02:38:06;101107.02;;;5.20;83.52
35507;BME280;36461;52.018;21.036;2023-04-10T02:40:36;101108.05;;;5.16;83.88
35507;BME280;36461;52.018;21.036;2023-04-10T02:43:12;101111.81;;;5.10;83.86
35507;BME280;36461;52.018;21.036;2023-04-10T02:45:40;101113.52;;;5.04;83.61
35507;BME280;36461;52.018;21.036;2023-04-10T02:48:10;101113.33;;;5.00;83.83
35507;BME280;36461;52.018;21.036;2023-04-10T02:50:37;101111.27;;;4.98;83.72
35507;BME280;36461;52.018;21.036;2023-04-10T02:53:05;101114.19;;;4.98;83.66
35507;BME280;36461;52.018;21.036;2023-04-10T02:55:33;101116.40;;;4.96;83.80
35507;BME280;36461;52.018;21.036;2023-04-10T02:58:01;101114.52;;;4.95;83.83
35507;BME280;36461;52.018;21.036;2023-04-10T03:00:29;101113.82;;;4.92;83.75
35507;BME280;36461;52.018;21.036;2023-04-10T03:03:12;101116.74;;;4.92;84.38
35507;BME280;36461;52.018;21.036;2023-04-10T03:05:45;101117.09;;;4.92;84.21
35507;BME280;36461;52.018;21.036;2023-04-10T03:08:17;101114.50;;;4.90;84.52
35507;BME280;36461;52.018;21.036;2023-04-10T03:10:46;101114.33;;;4.87;84.56
35507;BME280;36461;52.018;21.036;2023-04-10T03:13:17;101113.63;;;4.83;84.48
35507;BME280;36461;52.018;21.036;2023-04-10T03:15:45;101120.81;;;4.78;84.59
35507;BME280;36461;52.018;21.036;2023-04-10T03:18:13;101118.56;;;4.73;84.48
35507;BME280;36461;52.018;21.036;2023-04-10T03:20:43;101116.34;;;4.74;84.58
35507;BME280;36461;52.018;21.036;2023-04-10T03:23:11;101114.11;;;4.75;84.49
35507;BME280;36461;52.018;21.036;2023-04-10T03:25:40;101120.30;;;4.74;84.59
35507;BME280;36461;52.018;21.036;2023-04-10T03:28:09;101121.66;;;4.76;84.89
35507;BME280;36461;52.018;21.036;2023-04-10T03:30:37;101119.10;;;4.79;85.06
35507;BME280;36461;52.018;21.036;2023-04-10T03:33:05;101117.73;;;4.81;85.13
35507;BME280;36461;52.018;21.036;2023-04-10T03:35:32;101114.80;;;4.76;85.14
35507;BME280;36461;52.018;21.036;2023-04-10T03:38:00;101113.42;;;4.74;85.19
35507;BME280;36461;52.018;21.036;2023-04-10T03:40:28;101111.88;;;4.71;85.12
35507;BME280;36461;52.018;21.036;2023-04-10T03:42:57;101107.39;;;4.64;84.82
35507;BME280;36461;52.018;21.036;2023-04-10T03:45:28;101110.61;;;4.58;84.86
35507;BME280;36461;52.018;21.036;2023-04-10T03:47:56;101108.02;;;4.52;84.67
35507;BME280;36461;52.018;21.036;2023-04-10T03:50:24;101108.86;;;4.49;84.99
35507;BME280;36461;52.018;21.036;2023-04-10T03:52:57;101108.69;;;4.46;85.13
35507;BME280;36461;52.018;21.036;2023-04-10T03:55:25;101106.63;;;4.46;84.93
35507;BME280;36461;52.018;21.036;2023-04-10T03:57:54;101104.40;;;4.47;84.86
35507;BME280;36461;52.018;21.036;2023-04-10T04:00:23;101105.25;;;4.48;84.90
35507;BME280;36461;52.018;21.036;2023-04-10T04:02:58;101109.89;;;4.46;84.82
35507;BME280;36461;52.018;21.036;2023-04-10T04:05:57;101115.02;;;4.46;85.06
35507;BME280;36461;52.018;21.036;2023-04-10T04:08:36;101119.50;;;4.48;85.33
35507;BME280;36461;52.018;21.036;2023-04-10T04:11:11;101117.95;;;4.49;85.22
35507;BME280;36461;52.018;21.036;2023-04-10T04:13:54;101119.84;;;4.50;85.18
35507;BME280;36461;52.018;21.036;2023-04-10T04:16:41;101121.91;;;4.52;85.51
35507;BME280;36461;52.018;21.036;2023-04-10T04:19:32;101123.64;;;4.56;85.59
35507;BME280;36461;52.018;21.036;2023-04-10T04:22:21;101123.01;;;4.67;86.12
35507;BME280;36461;52.018;21.036;2023-04-10T04:25:13;101126.13;;;4.78;86.11
35507;BME280;36461;52.018;21.036;2023-04-10T04:28:09;101130.63;;;4.87;86.12
35507;BME280;36461;52.018;21.036;2023-04-10T04:30:59;101129.97;;;4.98;86.38
35507;BME280;36461;52.018;21.036;2023-04-10T04:33:48;101131.89;;;5.11;86.29
35507;BME280;36461;52.018;21.036;2023-04-10T04:36:43;101134.48;;;5.18;86.41
35507;BME280;36461;52.018;21.036;2023-04-10T04:39:30;101133.30;;;5.26;86.45
35507;BME280;36461;52.018;21.036;2023-04-10T04:42:20;101131.75;;;5.32;86.60
35507;BME280;36461;52.018;21.036;2023-04-10T04:45:21;101135.20;;;5.39;86.80
35507;BME280;36461;52.018;21.036;2023-04-10T04:48:08;101135.20;;;5.45;86.98
35507;BME280;36461;52.018;21.036;2023-04-10T04:50:55;101135.73;;;5.54;87.13
35507;BME280;36461;52.018;21.036;2023-04-10T04:53:40;101135.73;;;5.62;87.14
35507;BME280;36461;52.018;21.036;2023-04-10T04:56:26;101137.44;;;5.76;87.16
35507;BME280;36461;52.018;21.036;2023-04-10T04:59:26;101142.08;;;5.89;86.81
35507;BME280;36461;52.018;21.036;2023-04-10T05:02:01;101143.64;;;5.98;86.53
35507;BME280;36461;52.018;21.036;2023-04-10T05:05:05;101151.20;;;6.09;86.42
35507;BME280;36461;52.018;21.036;2023-04-10T05:08:06;101153.60;;;6.15;86.08
35507;BME280;36461;52.018;21.036;2023-04-10T05:10:47;101160.13;;;6.18;86.24
35507;BME280;36461;52.018;21.036;2023-04-10T05:13:33;101163.73;;;6.24;86.32
35507;BME280;36461;52.018;21.036;2023-04-10T05:16:24;101171.28;;;6.29;86.42
35507;BME280;36461;52.018;21.036;2023-04-10T05:19:03;101172.65;;;6.31;86.14
35507;BME280;36461;52.018;21.036;2023-04-10T05:21:57;101176.08;;;6.34;86.13
35507;BME280;36461;52.018;21.036;2023-04-10T05:24:52;101178.48;;;6.41;86.13
35507;BME280;36461;52.018;21.036;2023-04-10T05:27:25;101178.30;;;6.45;85.86
35507;BME280;36461;52.018;21.036;2023-04-10T05:30:12;101178.27;;;6.51;86.01
35507;BME280;36461;52.018;21.036;2023-04-10T05:32:43;101178.59;;;6.60;86.00
35507;BME280;36461;52.018;21.036;2023-04-10T05:35:18;101177.52;;;6.70;86.23
35507;BME280;36461;52.018;21.036;2023-04-10T05:37:57;101180.93;;;6.81;86.71
35507;BME280;36461;52.018;21.036;2023-04-10T05:40:46;101178.82;;;6.95;87.24
35507;BME280;36461;52.018;21.036;2023-04-10T05:43:33;101177.19;;;7.10;87.76
35507;BME280;36461;52.018;21.036;2023-04-10T05:46:25;101182.13;;;7.22;88.18
35507;BME280;36461;52.018;21.036;2023-04-10T05:49:06;101185.33;;;7.35;88.77
35507;BME280;36461;52.018;21.036;2023-04-10T05:51:41;101186.61;;;7.47;88.80
35507;BME280;36461;52.018;21.036;2023-04-10T05:54:39;101184.61;;;7.64;89.11
35507;BME280;36461;52.018;21.036;2023-04-10T05:57:35;101178.45;;;7.81;89.18
35507;BME280;36461;52.018;21.036;2023-04-10T06:00:17;101186.77;;;7.96;89.12
35507;BME280;36461;52.018;21.036;2023-04-10T06:03:03;101180.09;;;8.12;89.11
35507;BME280;36461;52.018;21.036;2023-04-10T06:05:32;101179.80;;;8.24;89.26
35507;BME280;36461;52.018;21.036;2023-04-10T06:08:03;101180.19;;;8.36;89.06
35507;BME280;36461;52.018;21.036;2023-04-10T06:10:31;101180.85;;;8.40;88.91
35507;BME280;36461;52.018;21.036;2023-04-10T06:12:59;101183.36;;;8.49;89.08
35507;BME280;36461;52.018;21.036;2023-04-10T06:15:28;101183.45;;;8.58;89.15
35507;BME280;36461;52.018;21.036;2023-04-10T06:17:57;101185.76;;;8.67;89.17
35507;BME280;36461;52.018;21.036;2023-04-10T06:20:25;101187.40;;;8.75;88.95
35507;BME280;36461;52.018;21.036;2023-04-10T06:22:53;101188.67;;;8.84;88.92
35507;BME280;36461;52.018;21.036;2023-04-10T06:25:21;101189.95;;;8.93;88.88
35507;BME280;36461;52.018;21.036;2023-04-10T06:27:49;101186.70;;;9.03;89.02
35507;BME280;36461;52.018;21.036;2023-04-10T06:30:18;101187.95;;;9.13;89.01
35507;BME280;36461;52.018;21.036;2023-04-10T06:32:46;101187.88;;;9.19;88.79
35507;BME280;36461;52.018;21.036;2023-04-10T06:35:14;101186.25;;;9.24;88.80
35507;BME280;36461;52.018;21.036;2023-04-10T06:37:42;101185.83;;;9.31;88.68
35507;BME280;36461;52.018;21.036;2023-04-10T06:40:12;101192.27;;;9.39;88.54
35507;BME280;36461;52.018;21.036;2023-04-10T06:42:41;101189.02;;;9.49;88.74
35507;BME280;36461;52.018;21.036;2023-04-10T06:45:22;101191.09;;;9.60;88.59
35507;BME280;36461;52.018;21.036;2023-04-10T06:47:50;101189.20;;;9.72;88.38
35507;BME280;36461;52.018;21.036;2023-04-10T06:50:18;101189.04;;;9.81;88.01
35507;BME280;36461;52.018;21.036;2023-04-10T06:52:47;101190.98;;;9.89;87.96
35507;BME280;36461;52.018;21.036;2023-04-10T06:55:14;101190.66;;;9.98;88.03
35507;BME280;36461;52.018;21.036;2023-04-10T06:57:43;101195.18;;;10.07;87.75
35507;BME280;36461;52.018;21.036;2023-04-10T07:00:12;101194.83;;;10.17;87.57
35507;BME280;36461;52.018;21.036;2023-04-10T07:02:40;101191.22;;;10.26;87.36
35507;BME280;36461;52.018;21.036;2023-04-10T07:05:09;101195.02;;;10.37;87.22
35507;BME280;36461;52.018;21.036;2023-04-10T07:07:36;101194.11;;;10.49;87.22
35507;BME280;36461;52.018;21.036;2023-04-10T07:10:05;101191.37;;;10.57;86.83
35507;BME280;36461;52.018;21.036;2023-04-10T07:12:33;101191.58;;;10.65;86.81
35507;BME280;36461;52.018;21.036;2023-04-10T07:15:02;101187.47;;;10.71;86.53
35507;BME280;36461;52.018;21.036;2023-04-10T07:17:30;101191.63;;;10.79;86.21
35507;BME280;36461;52.018;21.036;2023-04-10T07:19:58;101192.66;;;10.88;85.89
35507;BME280;36461;52.018;21.036;2023-04-10T07:22:26;101187.77;;;10.99;85.73
35507;BME280;36461;52.018;21.036;2023-04-10T07:24:54;101185.08;;;11.12;85.64
35507;BME280;36461;52.018;21.036;2023-04-10T07:27:23;101190.52;;;11.24;85.31
35507;BME280;36461;52.018;21.036;2023-04-10T07:29:54;101188.35;;;11.35;85.28
35507;BME280;36461;52.018;21.036;2023-04-10T07:32:23;101191.75;;;11.46;84.74
35507;BME280;36461;52.018;21.036;2023-04-10T07:34:51;101192.95;;;11.55;84.37
35507;BME280;36461;52.018;21.036;2023-04-10T07:37:19;101193.99;;;11.62;83.68
35507;BME280;36461;52.018;21.036;2023-04-10T07:39:48;101196.39;;;11.71;83.58
35507;BME280;36461;52.018;21.036;2023-04-10T07:42:16;101192.31;;;11.82;82.74
35507;BME280;36461;52.018;21.036;2023-04-10T07:44:44;101194.13;;;11.93;82.59
35507;BME280;36461;52.018;21.036;2023-04-10T07:47:12;101193.86;;;12.05;82.26
35507;BME280;36461;52.018;21.036;2023-04-10T07:49:39;101192.27;;;12.12;81.78
35507;BME280;36461;52.018;21.036;2023-04-10T07:52:08;101195.73;;;12.19;81.47
35507;BME280;36461;52.018;21.036;2023-04-10T07:54:36;101188.50;;;12.24;81.08
35507;BME280;36461;52.018;21.036;2023-04-10T07:57:04;101190.05;;;12.31;80.86
35507;BME280;36461;52.018;21.036;2023-04-10T07:59:32;101188.27;;;12.40;80.64
35507;BME280;36461;52.018;21.036;2023-04-10T08:01:59;101188.94;;;12.47;79.88
35507;BME280;36461;52.018;21.036;2023-04-10T08:04:28;101185.80;;;12.54;79.56
35507;BME280;36461;52.018;21.036;2023-04-10T08:06:56;101181.05;;;12.62;78.97
35507;BME280;36461;52.018;21.036;2023-04-10T08:09:24;101182.21;;;12.71;78.58
35507;BME280;36461;52.018;21.036;2023-04-10T08:11:52;101174.84;;;12.80;78.25
35507;BME280;36461;52.018;21.036;2023-04-10T08:14:20;101175.11;;;12.88;77.77
35507;BME280;36461;52.018;21.036;2023-04-10T08:16:47;101170.06;;;12.94;77.11
35507;BME280;36461;52.018;21.036;2023-04-10T08:19:15;101171.28;;;13.00;76.39
35507;BME280;36461;52.018;21.036;2023-04-10T08:21:43;101170.24;;;13.06;75.94
35507;BME280;36461;52.018;21.036;2023-04-10T08:24:11;101167.84;;;13.10;75.05
35507;BME280;36461;52.018;21.036;2023-04-10T08:26:39;101171.00;;;13.15;74.73
35507;BME280;36461;52.018;21.036;2023-04-10T08:29:07;101167.05;;;13.19;74.38
35507;BME280;36461;52.018;21.036;2023-04-10T08:31:35;101165.02;;;13.23;74.28
35507;BME280;36461;52.018;21.036;2023-04-10T08:34:03;101165.80;;;13.33;73.91
35507;BME280;36461;52.018;21.036;2023-04-10T08:36:31;101166.70;;;13.38;73.24
35507;BME280;36461;52.018;21.036;2023-04-10T08:38:59;101167.70;;;13.39;72.96
35507;BME280;36461;52.018;21.036;2023-04-10T08:41:27;101165.69;;;13.42;72.92
35507;BME280;36461;52.018;21.036;2023-04-10T08:43:56;101160.08;;;13.49;73.07
35507;BME280;36461;52.018;21.036;2023-04-10T08:46:25;101159.23;;;13.54;73.14
35507;BME280;36461;52.018;21.036;2023-04-10T08:49:03;101159.34;;;13.62;72.60
35507;BME280;36461;52.018;21.036;2023-04-10T08:51:38;101156.36;;;13.68;72.09
35507;BME280;36461;52.018;21.036;2023-04-10T08:54:20;101157.20;;;13.74;71.81
35507;BME280;36461;52.018;21.036;2023-04-10T08:56:54;101155.63;;;13.84;71.69
35507;BME280;36461;52.018;21.036;2023-04-10T08:59:23;101155.05;;;13.91;71.24
35507;BME280;36461;52.018;21.036;2023-04-10T09:01:51;101161.77;;;13.93;70.33
35507;BME280;36461;52.018;21.036;2023-04-10T09:04:20;101152.05;;;13.92;70.34
35507;BME280;36461;52.018;21.036;2023-04-10T09:06:51;101152.09;;;13.92;69.67
35507;BME280;36461;52.018;21.036;2023-04-10T09:09:19;101144.80;;;13.90;69.71
35507;BME280;36461;52.018;21.036;2023-04-10T09:16:50;101143.09;;;14.05;69.58
35507;BME280;36461;52.018;21.036;2023-04-10T09:19:29;101137.98;;;14.07;69.00
35507;BME280;36461;52.018;21.036;2023-04-10T09:21:57;101135.57;;;14.12;68.97
35507;BME280;36461;52.018;21.036;2023-04-10T09:24:26;101136.40;;;14.17;68.85
35507;BME280;36461;52.018;21.036;2023-04-10T09:26:54;101135.27;;;14.24;68.75
35507;BME280;36461;52.018;21.036;2023-04-10T09:29:24;101138.16;;;14.32;68.69
35507;BME280;36461;52.018;21.036;2023-04-10T09:31:53;101134.77;;;14.39;68.00
35507;BME280;36461;52.018;21.036;2023-04-10T09:34:22;101127.80;;;14.44;67.77
35507;BME280;36461;52.018;21.036;2023-04-10T09:36:58;101124.92;;;14.51;67.45
35507;BME280;36461;52.018;21.036;2023-04-10T09:39:33;101123.02;;;14.56;66.49
35507;BME280;36461;52.018;21.036;2023-04-10T09:42:02;101114.46;;;14.61;66.23
35507;BME280;36461;52.018;21.036;2023-04-10T09:44:32;101117.41;;;14.67;66.08
35507;BME280;36461;52.018;21.036;2023-04-10T09:49:52;101115.52;;;14.89;65.55
35507;BME280;36461;52.018;21.036;2023-04-10T09:52:25;101117.04;;;15.00;65.73
35507;BME280;36461;52.018;21.036;2023-04-10T09:55:02;101110.71;;;15.10;65.42
35507;BME280;36461;52.018;21.036;2023-04-10T09:57:32;101113.02;;;15.17;63.77
35507;BME280;36461;52.018;21.036;2023-04-10T10:00:05;101107.05;;;15.19;63.65
35507;BME280;36461;52.018;21.036;2023-04-10T10:02:37;101104.22;;;15.29;63.50
35507;BME280;36461;52.018;21.036;2023-04-10T10:05:09;101106.52;;;15.37;62.84
35507;BME280;36461;52.018;21.036;2023-04-10T10:07:38;101099.71;;;15.41;62.93
35507;BME280;36461;52.018;21.036;2023-04-10T10:10:07;101094.73;;;15.51;62.82
35507;BME280;36461;52.018;21.036;2023-04-10T10:12:44;101095.45;;;15.64;62.23
35507;BME280;36461;52.018;21.036;2023-04-10T10:15:21;101093.30;;;15.73;61.74
35507;BME280;36461;52.018;21.036;2023-04-10T10:18:02;101084.85;;;15.80;61.24
35507;BME280;36461;52.018;21.036;2023-04-10T10:20:33;101084.20;;;15.87;61.20
35507;BME280;36461;52.018;21.036;2023-04-10T10:23:03;101080.87;;;15.96;60.70
35507;BME280;36461;52.018;21.036;2023-04-10T10:25:33;101077.95;;;16.02;60.28
35507;BME280;36461;52.018;21.036;2023-04-10T10:28:03;101068.63;;;16.12;60.37
35507;BME280;36461;52.018;21.036;2023-04-10T10:30:31;101072.24;;;16.13;59.44
35507;BME280;36461;52.018;21.036;2023-04-10T10:33:02;101072.80;;;16.04;58.51
35507;BME280;36461;52.018;21.036;2023-04-10T10:35:34;101066.08;;;15.94;57.97
35507;BME280;36461;52.018;21.036;2023-04-10T10:38:03;101065.29;;;15.92;57.86
35507;BME280;36461;52.018;21.036;2023-04-10T10:40:37;101064.32;;;16.03;58.00
35507;BME280;36461;52.018;21.036;2023-04-10T10:43:23;101059.18;;;16.20;58.12
35507;BME280;36461;52.018;21.036;2023-04-10T10:46:06;101060.98;;;16.35;57.12
35507;BME280;36461;52.018;21.036;2023-04-10T10:48:36;101056.96;;;16.39;56.69
35507;BME280;36461;52.018;21.036;2023-04-10T10:51:05;101054.60;;;16.48;56.63
35507;BME280;36461;52.018;21.036;2023-04-10T10:53:43;101050.34;;;16.68;56.70
35507;BME280;36461;52.018;21.036;2023-04-10T10:58:48;101048.77;;;17.20;56.08
35507;BME280;36461;52.018;21.036;2023-04-10T11:01:17;101048.07;;;17.34;56.18
35507;BME280;36461;52.018;21.036;2023-04-10T11:03:46;101045.83;;;17.54;55.67
35507;BME280;36461;52.018;21.036;2023-04-10T11:06:18;101043.08;;;17.71;54.86
35507;BME280;36461;52.018;21.036;2023-04-10T11:08:51;101040.36;;;17.86;54.72
35507;BME280;36461;52.018;21.036;2023-04-10T11:11:24;101036.14;;;18.01;54.12
35507;BME280;36461;52.018;21.036;2023-04-10T11:16:21;101023.64;;;18.31;53.89
35507;BME280;36461;52.018;21.036;2023-04-10T11:24:28;101021.69;;;18.44;52.71
35507;BME280;36461;52.018;21.036;2023-04-10T11:26:57;101015.31;;;18.26;52.10
35507;BME280;36461;52.018;21.036;2023-04-10T11:34:22;101011.69;;;18.57;51.98
35507;BME280;36461;52.018;21.036;2023-04-10T11:36:50;101006.75;;;18.64;51.52
35507;BME280;36461;52.018;21.036;2023-04-10T11:39:19;101008.62;;;18.59;50.90
35507;BME280;36461;52.018;21.036;2023-04-10T11:41:50;101002.01;;;18.55;50.11
35507;BME280;36461;52.018;21.036;2023-04-10T11:44:30;100994.92;;;18.50;50.52
35507;BME280;36461;52.018;21.036;2023-04-10T11:46:59;100994.11;;;18.71;50.45
35507;BME280;36461;52.018;21.036;2023-04-10T11:49:30;100990.29;;;18.92;50.36
35507;BME280;36461;52.018;21.036;2023-04-10T11:51:59;100987.16;;;19.10;50.15
35507;BME280;36461;52.018;21.036;2023-04-10T11:54:28;100978.16;;;19.26;49.74
35507;BME280;36461;52.018;21.036;2023-04-10T11:56:58;100977.19;;;19.27;49.57
35507;BME280;36461;52.018;21.036;2023-04-10T11:59:29;100965.98;;;19.36;49.63
35507;BME280;36461;52.018;21.036;2023-04-10T12:02:07;100964.91;;;19.39;49.43
35507;BME280;36461;52.018;21.036;2023-04-10T12:04:36;100962.01;;;19.32;49.27
35507;BME280;36461;52.018;21.036;2023-04-10T12:07:05;100967.48;;;19.22;48.84
35507;BME280;36461;52.018;21.036;2023-04-10T12:09:33;100968.72;;;19.05;48.36
35507;BME280;36461;52.018;21.036;2023-04-10T12:12:02;100963.35;;;18.97;48.64
35507;BME280;36461;52.018;21.036;2023-04-10T12:14:31;100957.19;;;19.01;48.95
35507;BME280;36461;52.018;21.036;2023-04-10T12:17:01;100955.31;;;19.09;48.60
35507;BME280;36461;52.018;21.036;2023-04-10T12:19:30;100952.91;;;19.17;48.61
35507;BME280;36461;52.018;21.036;2023-04-10T12:21:58;100946.27;;;19.31;48.65
35507;BME280;36461;52.018;21.036;2023-04-10T12:24:45;100942.07;;;19.43;48.29
35507;BME280;36461;52.018;21.036;2023-04-10T12:27:18;100939.83;;;19.45;47.57
35507;BME280;36461;52.018;21.036;2023-04-10T12:29:49;100940.27;;;19.41;47.17
35507;BME280;36461;52.018;21.036;2023-04-10T12:32:17;100934.06;;;19.33;46.82
35507;BME280;36461;52.018;21.036;2023-04-10T12:34:57;100935.57;;;19.31;46.61
35507;BME280;36461;52.018;21.036;2023-04-10T12:37:45;100929.40;;;19.32;46.61
35507;BME280;36461;52.018;21.036;2023-04-10T12:40:17;100927.65;;;19.38;46.71
35507;BME280;36461;52.018;21.036;2023-04-10T12:42:47;100922.11;;;19.39;46.77
35507;BME280;36461;52.018;21.036;2023-04-10T12:45:15;100919.14;;;19.42;46.67
35507;BME280;36461;52.018;21.036;2023-04-10T12:47:48;100915.96;;;19.42;46.53
35507;BME280;36461;52.018;21.036;2023-04-10T12:50:19;100918.05;;;19.36;46.48
35507;BME280;36461;52.018;21.036;2023-04-10T12:53:03;100914.31;;;19.28;46.21
35507;BME280;36461;52.018;21.036;2023-04-10T12:55:31;100915.95;;;19.16;46.36
35507;BME280;36461;52.018;21.036;2023-04-10T12:58:18;100920.17;;;19.04;46.23
35507;BME280;36461;52.018;21.036;2023-04-10T13:00:47;100917.08;;;18.87;46.37
35507;BME280;36461;52.018;21.036;2023-04-10T13:03:16;100911.89;;;18.80;46.21
35507;BME280;36461;52.018;21.036;2023-04-10T13:05:46;100912.57;;;18.74;46.61
35507;BME280;36461;52.018;21.036;2023-04-10T13:08:14;100913.69;;;18.67;46.80
35507;BME280;36461;52.018;21.036;2023-04-10T13:10:43;100913.01;;;18.60;47.72
35507;BME280;36461;52.018;21.036;2023-04-10T13:13:11;100911.34;;;18.56;48.37
35507;BME280;36461;52.018;21.036;2023-04-10T13:15:39;100906.51;;;18.48;49.10
35507;BME280;36461;52.018;21.036;2023-04-10T13:18:08;100907.65;;;18.40;48.83
35507;BME280;36461;52.018;21.036;2023-04-10T13:20:40;100903.20;;;18.36;48.84
35507;BME280;36461;52.018;21.036;2023-04-10T13:23:09;100901.02;;;18.31;48.68
35507;BME280;36461;52.018;21.036;2023-04-10T13:25:38;100898.05;;;18.21;48.52
35507;BME280;36461;52.018;21.036;2023-04-10T13:28:07;100895.93;;;18.12;48.50
35507;BME280;36461;52.018;21.036;2023-04-10T13:30:40;100897.23;;;18.04;48.55
35507;BME280;36461;52.018;21.036;2023-04-10T13:33:08;100897.12;;;18.03;48.99
35507;BME280;36461;52.018;21.036;2023-04-10T13:35:38;100897.20;;;18.08;49.07
35507;BME280;36461;52.018;21.036;2023-04-10T13:38:07;100890.30;;;18.15;48.82
35507;BME280;36461;52.018;21.036;2023-04-10T13:40:36;100889.64;;;18.24;48.56
35507;BME280;36461;52.018;21.036;2023-04-10T13:43:04;100885.85;;;18.39;48.52
35507;BME280;36461;52.018;21.036;2023-04-10T13:45:33;100880.78;;;18.57;48.43